createdAt,value
2022-09-28T00:01:18.024Z,96618.50
2022-09-28T00:03:45.991Z,96617.59
2022-09-28T00:06:14.148Z,96619.47
2022-09-28T00:08:40.733Z,96608.81
2022-09-28T00:11:11.183Z,96609.66
2022-09-28T00:13:37.945Z,96608.19
2022-09-28T00:16:08.233Z,96598.34
2022-09-28T00:18:36.057Z,96611.41
2022-09-28T00:21:06.827Z,96601.53
2022-09-28T00:23:33.924Z,96601.00
2022-09-28T00:26:05.627Z,96598.72
2022-09-28T00:28:32.450Z,96588.63
2022-09-28T00:30:59.275Z,96590.00
2022-09-28T00:33:25.901Z,96581.56
2022-09-28T00:35:56.984Z,96575.81
2022-09-28T00:38:27.337Z,96576.81
2022-09-28T00:40:55.527Z,96567.03
2022-09-28T00:43:24.063Z,96563.03
2022-09-28T00:45:59.073Z,96555.59
2022-09-28T00:48:29.214Z,96551.75
2022-09-28T00:50:57.319Z,96538.50
2022-09-28T00:53:31.817Z,96539.50
2022-09-28T00:56:07.442Z,96532.28
2022-09-28T00:58:38.788Z,96532.91
2022-09-28T01:01:05.701Z,96528.72
2022-09-28T01:03:33.606Z,96527.59
2022-09-28T01:06:02.743Z,96517.09
2022-09-28T01:08:31.669Z,96512.06
2022-09-28T01:10:59.908Z,96510.59
2022-09-28T01:13:27.142Z,96507.66
2022-09-28T01:15:59.355Z,96509.25
2022-09-28T01:18:30.746Z,96503.66
2022-09-28T01:21:05.430Z,96507.06
2022-09-28T01:24:00.254Z,96493.88
2022-09-28T01:26:51.549Z,96493.22
2022-09-28T01:29:33.430Z,96498.25
2022-09-28T01:32:24.872Z,96489.47
2022-09-28T01:35:18.435Z,96493.22
2022-09-28T01:37:52.572Z,96494.69
2022-09-28T01:40:21.676Z,96493.41
2022-09-28T01:42:53.178Z,96481.47
2022-09-28T01:45:43.499Z,96483.94
2022-09-28T01:48:13.168Z,96483.84
2022-09-28T01:50:42.207Z,96477.41
2022-09-28T01:53:43.299Z,96471.81
2022-09-28T01:56:22.287Z,96466.06
2022-09-28T01:58:57.863Z,96466.81
2022-09-28T02:01:34.310Z,96459.56
2022-09-28T02:04:08.659Z,96460.00
2022-09-28T02:06:41.853Z,96454.25
2022-09-28T02:09:13.376Z,96455.75
2022-09-28T02:11:46.707Z,96459.09
2022-09-28T02:14:17.013Z,96462.28
2022-09-28T02:16:44.936Z,96460.56
2022-09-28T02:19:25.737Z,96444.41
2022-09-28T02:22:23.326Z,96448.34
2022-09-28T02:24:58.335Z,96452.44
2022-09-28T02:27:34.154Z,96446.81
2022-09-28T02:30:01.403Z,96436.75
2022-09-28T02:32:29.435Z,96435.94
2022-09-28T02:34:55.888Z,96438.88
2022-09-28T02:37:22.523Z,96436.63
2022-09-28T02:39:48.915Z,96435.88
2022-09-28T02:42:27.476Z,96432.13
2022-09-28T02:45:02.857Z,96437.16
2022-09-28T02:47:46.890Z,96429.03
2022-09-28T02:50:19.256Z,96421.50
2022-09-28T02:52:57.524Z,96421.34
2022-09-28T02:55:38.422Z,96424.31
2022-09-28T02:58:27.860Z,96429.16
2022-09-28T03:01:27.141Z,96432.34
2022-09-28T03:04:12.325Z,96423.56
2022-09-28T03:06:53.860Z,96424.31
2022-09-28T03:09:26.799Z,96433.03
2022-09-28T03:11:58.693Z,96428.06
2022-09-28T03:14:25.398Z,96436.38
2022-09-28T03:16:51.790Z,96435.66
2022-09-28T03:19:23.270Z,96432.47
2022-09-28T03:21:49.807Z,96434.03
2022-09-28T03:24:16.183Z,96437.03
2022-09-28T03:26:42.563Z,96430.84
2022-09-28T03:29:08.929Z,96441.00
2022-09-28T03:31:35.363Z,96440.22
2022-09-28T03:34:01.993Z,96436.66
2022-09-28T03:36:28.380Z,96441.81
2022-09-28T03:38:59.372Z,96437.78
2022-09-28T03:41:27.703Z,96440.84
2022-09-28T03:43:54.052Z,96440.53
2022-09-28T03:46:20.505Z,96441.72
2022-09-28T03:48:47.023Z,96439.81
2022-09-28T03:51:14.069Z,96432.19
2022-09-28T03:53:40.699Z,96438.19
2022-09-28T03:56:11.743Z,96439.94
2022-09-28T03:58:38.154Z,96435.47
2022-09-28T04:01:07.049Z,96438.25
2022-09-28T04:03:33.890Z,96438.94
2022-09-28T04:06:01.184Z,96434.19
2022-09-28T04:08:28.536Z,96431.72
2022-09-28T04:10:59.302Z,96437.34
2022-09-28T04:13:26.277Z,96446.75
2022-09-28T04:15:54.655Z,96452.19
2022-09-28T04:18:21.523Z,96442.75
2022-09-28T04:20:48.148Z,96446.06
2022-09-28T04:23:15.604Z,96443.03
2022-09-28T04:25:42.518Z,96437.38
2022-09-28T04:28:27.899Z,96443.22
2022-09-28T04:30:54.280Z,96448.34
2022-09-28T04:33:20.784Z,96450.91
2022-09-28T04:35:47.235Z,96450.28
2022-09-28T04:38:13.611Z,96455.59
2022-09-28T04:40:40.288Z,96449.28
2022-09-28T04:43:06.785Z,96450.53
2022-09-28T04:45:33.262Z,96451.13
2022-09-28T04:47:59.685Z,96451.94
2022-09-28T04:50:26.302Z,96455.59
2022-09-28T04:52:52.769Z,96456.22
2022-09-28T04:55:20.514Z,96455.75
2022-09-28T04:57:47.034Z,96453.50
2022-09-28T05:00:14.011Z,96463.97
2022-09-28T05:02:40.395Z,96466.34
2022-09-28T05:05:07.273Z,96464.03
2022-09-28T05:07:33.671Z,96469.22
2022-09-28T05:10:00.583Z,96465.22
2022-09-28T05:12:27.056Z,96479.75
2022-09-28T05:14:53.399Z,96466.97
2022-09-28T05:17:19.935Z,96477.66
2022-09-28T05:19:46.437Z,96480.72
2022-09-28T05:22:14.781Z,96475.09
2022-09-28T05:24:41.617Z,96472.84
2022-09-28T05:27:08.269Z,96472.19
2022-09-28T05:29:34.798Z,96484.81
2022-09-28T05:32:01.668Z,96493.50
2022-09-28T05:34:28.849Z,96492.88
2022-09-28T05:36:55.286Z,96489.47
2022-09-28T05:39:21.630Z,96494.31
2022-09-28T05:41:48.145Z,96494.50
2022-09-28T05:44:14.514Z,96493.56
2022-09-28T05:46:40.979Z,96494.91
2022-09-28T05:49:07.360Z,96490.91
2022-09-28T05:51:33.768Z,96501.34
2022-09-28T05:54:05.389Z,96507.47
2022-09-28T05:56:41.392Z,96505.97
2022-09-28T05:59:07.850Z,96505.34
2022-09-28T06:01:34.327Z,96507.06
2022-09-28T06:04:01.055Z,96510.59
2022-09-28T06:06:27.491Z,96512.41
2022-09-28T06:08:54.285Z,96515.50
2022-09-28T06:11:20.723Z,96510.00
2022-09-28T06:13:47.255Z,96509.41
2022-09-28T06:16:16.492Z,96513.50
2022-09-28T06:18:42.981Z,96513.75
2022-09-28T06:21:10.916Z,96515.56
2022-09-28T06:23:39.995Z,96522.28
2022-09-28T06:26:07.886Z,96518.50
2022-09-28T06:28:34.362Z,96521.44
2022-09-28T06:31:01.647Z,96523.53
2022-09-28T06:33:28.135Z,96521.34
2022-09-28T06:35:54.519Z,96522.50
2022-09-28T06:38:21.954Z,96526.19
2022-09-28T06:40:48.405Z,96532.78
2022-09-28T06:43:15.376Z,96538.63
2022-09-28T06:45:43.009Z,96536.72
2022-09-28T06:48:10.667Z,96540.28
2022-09-28T06:50:40.704Z,96538.19
2022-09-28T06:53:09.453Z,96539.91
2022-09-28T06:55:38.791Z,96544.72
2022-09-28T06:58:09.427Z,96540.53
2022-09-28T07:00:37.778Z,96550.59
2022-09-28T07:03:11.272Z,96559.81
2022-09-28T07:05:42.171Z,96558.38
2022-09-28T07:08:08.701Z,96564.38
2022-09-28T07:10:35.232Z,96562.63
2022-09-28T07:13:05.240Z,96567.72
2022-09-28T07:15:32.909Z,96574.25
2022-09-28T07:18:03.566Z,96574.25
2022-09-28T07:20:32.351Z,96571.94
2022-09-28T07:23:15.840Z,96579.09
2022-09-28T07:25:47.798Z,96583.78
2022-09-28T07:28:14.785Z,96584.81
2022-09-28T07:30:42.209Z,96590.97
2022-09-28T07:33:12.563Z,96597.22
2022-09-28T07:35:39.105Z,96593.81
2022-09-28T07:38:07.084Z,96600.06
2022-09-28T07:40:54.088Z,96604.56
2022-09-28T07:43:21.254Z,96610.03
2022-09-28T07:45:48.946Z,96611.63
2022-09-28T07:48:16.268Z,96610.38
2022-09-28T07:50:55.135Z,96617.22
2022-09-28T07:53:24.795Z,96615.38
2022-09-28T07:55:56.188Z,96623.34
2022-09-28T07:58:23.281Z,96622.50
2022-09-28T08:00:50.877Z,96623.66
2022-09-28T08:03:19.062Z,96630.59
2022-09-28T08:05:47.358Z,96638.94
2022-09-28T08:08:15.012Z,96637.03
2022-09-28T08:10:47.120Z,96643.03
2022-09-28T08:13:15.152Z,96644.56
2022-09-28T08:15:42.430Z,96642.28
2022-09-28T08:18:09.242Z,96652.53
2022-09-28T08:20:53.979Z,96652.16
2022-09-28T08:23:20.938Z,96663.63
2022-09-28T08:25:50.879Z,96659.44
2022-09-28T08:28:17.973Z,96667.38
2022-09-28T08:30:47.004Z,96673.88
2022-09-28T08:33:15.186Z,96671.00
2022-09-28T08:35:42.291Z,96668.47
2022-09-28T08:38:09.670Z,96672.28
2022-09-28T08:40:54.913Z,96670.59
2022-09-28T08:43:47.318Z,96676.34
2022-09-28T08:46:16.927Z,96693.00
2022-09-28T08:49:20.624Z,96686.31
2022-09-28T08:51:51.223Z,96684.50
2022-09-28T08:54:31.679Z,96691.06
2022-09-28T08:57:14.134Z,96684.03
2022-09-28T08:59:43.309Z,96687.91
2022-09-28T09:02:22.191Z,96697.34
2022-09-28T09:04:51.579Z,96695.72
2022-09-28T09:07:39.400Z,96688.91
2022-09-28T09:10:09.136Z,96697.66
2022-09-28T09:15:44.645Z,96704.16
2022-09-28T09:18:19.903Z,96705.66
2022-09-28T09:20:58.565Z,96701.72
2022-09-28T09:23:35.360Z,96710.78
2022-09-28T09:26:15.453Z,96705.78
2022-09-28T09:29:05.129Z,96713.00
2022-09-28T09:31:57.495Z,96713.84
2022-09-28T09:34:33.225Z,96718.53
2022-09-28T09:37:17.981Z,96725.38
2022-09-28T09:40:04.978Z,96720.69
2022-09-28T09:42:52.502Z,96718.97
2022-09-28T09:45:56.048Z,96718.66
2022-09-28T09:48:29.975Z,96719.00
2022-09-28T09:51:11.778Z,96718.47
2022-09-28T09:53:48.869Z,96722.34
2022-09-28T09:56:21.625Z,96722.59
2022-09-28T09:59:00.692Z,96715.78
2022-09-28T10:01:34.528Z,96727.78
2022-09-28T10:04:04.792Z,96716.19
2022-09-28T10:06:36.590Z,96726.22
2022-09-28T10:09:41.153Z,96719.75
2022-09-28T10:12:15.236Z,96720.06
2022-09-28T10:14:42.287Z,96718.38
2022-09-28T10:17:14.572Z,96721.00
2022-09-28T10:19:42.570Z,96717.94
2022-09-28T10:22:19.234Z,96716.25
2022-09-28T10:24:56.319Z,96707.41
2022-09-28T10:27:30.589Z,96716.22
2022-09-28T10:30:25.528Z,96724.41
2022-09-28T10:32:55.530Z,96723.28
2022-09-28T10:35:29.469Z,96727.47
2022-09-28T10:38:06.571Z,96727.06
2022-09-28T10:40:37.364Z,96732.81
2022-09-28T10:43:08.195Z,96723.97
2022-09-28T10:45:37.132Z,96732.19
2022-09-28T10:48:18.051Z,96726.59
2022-09-28T10:51:06.926Z,96732.97
2022-09-28T10:53:36.981Z,96736.88
2022-09-28T10:56:08.714Z,96741.78
2022-09-28T10:58:40.618Z,96743.84
2022-09-28T11:01:16.426Z,96753.25
2022-09-28T11:03:54.784Z,96744.06
2022-09-28T11:06:27.975Z,96743.94
2022-09-28T11:08:57.928Z,96742.81
2022-09-28T11:11:27.452Z,96744.44
2022-09-28T11:14:00.347Z,96754.38
2022-09-28T11:16:35.933Z,96747.81
2022-09-28T11:19:20.716Z,96752.81
2022-09-28T11:21:47.333Z,96761.56
2022-09-28T11:24:23.097Z,96759.66
2022-09-28T11:26:52.841Z,96759.47
2022-09-28T11:29:23.837Z,96751.03
2022-09-28T11:31:51.422Z,96749.53
2022-09-28T11:34:41.499Z,96747.00
2022-09-28T11:37:28.622Z,96745.13
2022-09-28T11:40:26.804Z,96739.53
2022-09-28T11:43:28.479Z,96738.28
2022-09-28T11:46:02.301Z,96746.75
2022-09-28T11:48:58.069Z,96748.13
2022-09-28T11:51:30.327Z,96743.94
2022-09-28T11:54:14.594Z,96742.22
2022-09-28T11:56:49.025Z,96741.63
2022-09-28T11:59:30.650Z,96748.25
2022-09-28T12:02:00.643Z,96736.44
2022-09-28T12:04:41.251Z,96743.28
2022-09-28T12:07:22.371Z,96739.41
2022-09-28T12:09:55.782Z,96741.25
2022-09-28T12:12:31.495Z,96738.88
2022-09-28T12:15:05.413Z,96736.00
2022-09-28T12:17:40.454Z,96732.88
2022-09-28T12:20:18.788Z,96727.25
2022-09-28T12:22:53.461Z,96723.94
2022-09-28T12:25:23.087Z,96725.53
2022-09-28T12:27:53.922Z,96731.50
2022-09-28T12:30:25.187Z,96724.03
2022-09-28T12:33:09.302Z,96727.53
2022-09-28T12:35:53.382Z,96725.75
2022-09-28T12:38:31.937Z,96741.50
2022-09-28T12:41:16.622Z,96725.84
2022-09-28T12:44:13.178Z,96727.47
2022-09-28T12:46:53.765Z,96729.22
2022-09-28T12:50:33.332Z,96732.72
2022-09-28T12:52:43.343Z,96742.88
2022-09-28T12:55:42.397Z,96746.72
2022-09-28T12:58:15.172Z,96742.53
2022-09-28T13:01:12.281Z,96739.50
2022-09-28T13:03:41.154Z,96744.84
2022-09-28T13:06:22.299Z,96745.22
2022-09-28T13:08:48.707Z,96744.84
2022-09-28T13:11:20.782Z,96740.06
2022-09-28T13:14:03.043Z,96744.44
2022-09-28T13:17:10.961Z,96743.84
2022-09-28T13:19:44.030Z,96740.22
2022-09-28T13:22:35.590Z,96731.09
2022-09-28T13:25:10.432Z,96732.34
2022-09-28T13:28:04.445Z,96729.09
2022-09-28T13:30:34.304Z,96722.94
2022-09-28T13:33:04.091Z,96725.09
2022-09-28T13:35:33.181Z,96727.66
2022-09-28T13:38:17.783Z,96728.75
2022-09-28T13:41:06.117Z,96737.94
2022-09-28T13:44:06.982Z,96734.84
2022-09-28T13:47:08.300Z,96733.38
2022-09-28T13:50:19.185Z,96729.81
2022-09-28T13:52:52.855Z,96731.31
2022-09-28T13:56:00.827Z,96723.53
2022-09-28T13:58:42.079Z,96728.47
2022-09-28T14:01:18.006Z,96728.81
2022-09-28T14:04:19.094Z,96743.94
2022-09-28T14:07:16.663Z,96745.28
2022-09-28T14:09:48.554Z,96748.94
2022-09-28T14:12:33.559Z,96748.56
2022-09-28T14:15:01.269Z,96743.44
2022-09-28T14:17:27.737Z,96753.38
2022-09-28T14:20:00.105Z,96757.56
2022-09-28T14:22:55.154Z,96759.03
2022-09-28T14:25:28.127Z,96757.22
2022-09-28T14:28:25.082Z,96752.84
2022-09-28T14:30:56.739Z,96757.53
2022-09-28T14:33:30.652Z,96762.91
2022-09-28T14:36:06.499Z,96767.91
2022-09-28T14:39:02.898Z,96760.44
2022-09-28T14:41:35.547Z,96762.84
2022-09-28T14:44:06.397Z,96758.22
2022-09-28T14:46:35.378Z,96761.75
2022-09-28T14:49:17.428Z,96763.66
2022-09-28T14:51:45.038Z,96764.38
2022-09-28T14:54:15.155Z,96772.31
2022-09-28T14:56:57.025Z,96768.78
2022-09-28T14:59:30.493Z,96768.13
2022-09-28T15:02:19.622Z,96768.50
2022-09-28T15:05:06.475Z,96768.69
2022-09-28T15:07:49.523Z,96769.56
2022-09-28T15:10:31.229Z,96762.00
2022-09-28T15:13:03.347Z,96764.75
2022-09-28T15:15:40.467Z,96771.66
2022-09-28T15:18:07.086Z,96768.03
2022-09-28T15:20:38.061Z,96772.56
2022-09-28T15:23:04.554Z,96773.72
2022-09-28T15:25:32.751Z,96771.50
2022-09-28T15:28:13.892Z,96772.88
2022-09-28T15:30:40.462Z,96773.69
2022-09-28T15:33:51.669Z,96783.88
2022-09-28T15:36:28.824Z,96781.50
2022-09-28T15:39:02.706Z,96786.00
2022-09-28T15:41:29.153Z,96784.22
2022-09-28T15:44:28.999Z,96779.38
2022-09-28T15:47:07.537Z,96790.75
2022-09-28T15:49:53.120Z,96785.94
2022-09-28T15:52:42.791Z,96786.50
2022-09-28T15:55:24.125Z,96794.03
2022-09-28T15:58:03.936Z,96790.59
2022-09-28T16:00:31.480Z,96790.41
2022-09-28T16:03:07.091Z,96791.81
2022-09-28T16:05:46.548Z,96791.19
2022-09-28T16:08:27.223Z,96790.47
2022-09-28T16:11:16.976Z,96793.59
2022-09-28T16:13:57.876Z,96794.25
2022-09-28T16:16:31.111Z,96796.50
2022-09-28T16:19:01.076Z,96796.72
2022-09-28T16:21:36.599Z,96800.00
2022-09-28T16:24:03.388Z,96803.53
2022-09-28T16:26:37.269Z,96806.97
2022-09-28T16:29:24.683Z,96813.38
2022-09-28T16:31:53.028Z,96801.47
2022-09-28T16:34:23.671Z,96810.44
2022-09-28T16:36:50.602Z,96803.66
2022-09-28T16:39:18.868Z,96801.81
2022-09-28T16:41:56.015Z,96808.97
2022-09-28T16:44:28.343Z,96812.63
2022-09-28T16:46:57.490Z,96812.22
2022-09-28T16:49:25.435Z,96816.75
2022-09-28T16:51:52.470Z,96811.19
2022-09-28T16:54:40.403Z,96818.13
2022-09-28T16:57:09.592Z,96813.75
2022-09-28T16:59:38.285Z,96817.88
2022-09-28T17:05:07.052Z,96817.00
2022-09-28T17:07:34.059Z,96826.63
2022-09-28T17:10:00.440Z,96830.50
2022-09-28T17:12:29.095Z,96832.53
2022-09-28T17:14:55.474Z,96829.44
2022-09-28T17:17:22.659Z,96827.72
2022-09-28T17:19:49.074Z,96831.63
2022-09-28T17:22:16.700Z,96833.41
2022-09-28T17:24:45.433Z,96835.38
2022-09-28T17:27:18.645Z,96839.06
2022-09-28T17:29:45.055Z,96841.06
2022-09-28T17:32:18.184Z,96848.41
2022-09-28T17:34:51.521Z,96848.19
2022-09-28T17:37:22.514Z,96850.84
2022-09-28T17:39:48.963Z,96855.56
2022-09-28T17:42:17.152Z,96855.56
2022-09-28T17:44:43.571Z,96860.09
2022-09-28T17:47:11.215Z,96865.63
2022-09-28T17:49:38.161Z,96871.09
2022-09-28T17:52:05.489Z,96866.75
2022-09-28T17:54:32.593Z,96868.75
2022-09-28T17:56:59.180Z,96872.84
2022-09-28T17:59:27.427Z,96869.16
2022-09-28T18:01:53.837Z,96862.81
2022-09-28T18:04:40.168Z,96863.72
2022-09-28T18:07:06.813Z,96872.72
2022-09-28T18:09:33.202Z,96864.75
2022-09-28T18:12:04.036Z,96870.63
2022-09-28T18:14:30.531Z,96871.91
2022-09-28T18:16:56.953Z,96870.38
2022-09-28T18:19:23.340Z,96873.69
2022-09-28T18:21:49.755Z,96872.22
2022-09-28T18:24:16.329Z,96869.75
2022-09-28T18:26:42.819Z,96876.84
2022-09-28T18:29:09.224Z,96877.66
2022-09-28T18:31:36.676Z,96883.72
2022-09-28T18:34:03.331Z,96882.91
2022-09-28T18:36:31.984Z,96882.91
2022-09-28T18:39:00.921Z,96885.31
2022-09-28T18:41:28.309Z,96890.56
2022-09-28T18:44:00.737Z,96888.34
2022-09-28T18:46:28.682Z,96884.53
2022-09-28T18:48:55.884Z,96883.53
2022-09-28T18:51:22.537Z,96888.00
2022-09-28T18:53:49.007Z,96891.84
2022-09-28T18:56:20.977Z,96901.47
2022-09-28T18:58:52.651Z,96895.72
2022-09-28T19:01:36.513Z,96897.28
2022-09-28T19:04:05.926Z,96904.38
2022-09-28T19:06:34.374Z,96907.84
2022-09-28T19:09:01.401Z,96903.34
2022-09-28T19:11:28.612Z,96899.69
2022-09-28T19:13:56.067Z,96907.38
2022-09-28T19:16:25.614Z,96904.44
2022-09-28T19:18:53.468Z,96898.03
2022-09-28T19:21:20.573Z,96909.59
2022-09-28T19:23:49.847Z,96904.84
2022-09-28T19:26:21.063Z,96902.34
2022-09-28T19:28:48.717Z,96907.84
2022-09-28T19:31:15.704Z,96908.50
2022-09-28T19:33:42.593Z,96912.34
2022-09-28T19:36:12.263Z,96909.78
2022-09-28T19:38:39.459Z,96911.34
2022-09-28T19:41:39.581Z,96911.16
2022-09-28T19:44:21.020Z,96915.06
2022-09-28T19:46:47.471Z,96915.25
2022-09-28T19:49:21.109Z,96913.69
2022-09-28T19:52:17.890Z,96913.03
2022-09-28T19:54:37.537Z,96909.22
2022-09-28T19:57:10.482Z,96907.72
2022-09-28T19:59:37.578Z,96908.94
2022-09-28T20:02:06.936Z,96915.88
2022-09-28T20:04:33.479Z,96920.28
2022-09-28T20:07:00.222Z,96917.34
2022-09-28T20:09:26.619Z,96922.66
2022-09-28T20:11:53.229Z,96929.97
2022-09-28T20:14:20.168Z,96957.31
2022-09-28T20:16:48.120Z,96959.84
2022-09-28T20:19:14.799Z,96961.59
2022-09-28T20:21:41.289Z,96958.22
2022-09-28T20:24:08.617Z,96958.63
2022-09-28T20:26:37.538Z,96964.75
2022-09-28T20:29:07.521Z,96966.97
2022-09-28T20:31:38.245Z,96969.88
2022-09-28T20:34:06.070Z,96980.69
2022-09-28T20:36:32.593Z,96974.09
2022-09-28T20:39:03.393Z,96968.91
2022-09-28T20:41:36.440Z,96976.25
2022-09-28T20:44:05.935Z,96978.19
2022-09-28T20:46:34.669Z,96975.88
2022-09-28T20:49:01.586Z,96976.50
2022-09-28T20:51:28.102Z,96975.78
2022-09-28T20:53:56.559Z,96975.56
2022-09-28T20:56:24.983Z,96972.00
2022-09-28T20:58:52.392Z,96979.34
2022-09-28T21:01:23.859Z,96980.97
2022-09-28T21:03:55.731Z,96986.00
2022-09-28T21:06:24.401Z,96982.97
2022-09-28T21:08:50.915Z,96984.34
2022-09-28T21:11:19.777Z,96976.13
2022-09-28T21:13:47.487Z,96987.78
2022-09-28T21:16:17.967Z,96988.03
2022-09-28T21:18:44.949Z,96984.09
2022-09-28T21:21:17.026Z,96983.41
2022-09-28T21:23:46.832Z,96985.34
2022-09-28T21:26:24.653Z,96976.56
2022-09-28T21:28:55.935Z,96971.78
2022-09-28T21:31:28.816Z,96978.59
2022-09-28T21:33:56.423Z,96971.84
2022-09-28T21:36:22.775Z,96974.91
2022-09-28T21:38:49.323Z,96985.91
2022-09-28T21:41:15.768Z,96978.00
2022-09-28T21:43:42.270Z,96972.94
2022-09-28T21:46:09.807Z,96967.78
2022-09-28T21:48:36.203Z,96974.28
2022-09-28T21:51:05.385Z,96972.28
2022-09-28T21:53:34.327Z,96976.41
2022-09-28T21:56:01.993Z,96966.69
2022-09-28T21:58:33.472Z,96966.00
2022-09-28T22:01:13.028Z,96977.47
2022-09-28T22:03:39.669Z,96971.38
2022-09-28T22:06:06.749Z,96971.22
2022-09-28T22:08:34.067Z,96970.06
2022-09-28T22:11:12.294Z,96976.72
2022-09-28T22:13:47.071Z,96976.53
2022-09-28T22:16:14.988Z,96979.50
2022-09-28T22:18:41.630Z,96979.69
2022-09-28T22:21:16.385Z,96975.88
2022-09-28T22:23:42.926Z,96980.88
2022-09-28T22:26:21.453Z,96974.41
2022-09-28T22:28:51.119Z,96982.69
2022-09-28T22:31:19.747Z,96983.66
2022-09-28T22:33:46.625Z,96978.22
2022-09-28T22:36:16.596Z,96978.91
2022-09-28T22:38:44.578Z,96986.84
2022-09-28T22:41:11.604Z,96980.22
2022-09-28T22:43:38.148Z,96978.69
2022-09-28T22:46:12.317Z,96976.88
2022-09-28T22:48:39.201Z,96976.22
2022-09-28T22:51:06.660Z,96968.28
2022-09-28T22:53:34.853Z,96975.22
2022-09-28T22:56:04.811Z,96974.53
2022-09-28T22:58:35.508Z,96973.38
2022-09-28T23:01:14.053Z,96978.47
2022-09-28T23:03:42.011Z,96974.00
2022-09-28T23:06:09.525Z,96976.66
2022-09-28T23:08:36.027Z,96972.63
2022-09-28T23:11:03.393Z,96971.16
2022-09-28T23:13:31.120Z,96975.47
2022-09-28T23:15:58.981Z,96978.47
2022-09-28T23:18:28.430Z,96975.88
2022-09-28T23:21:03.772Z,96977.19
2022-09-28T23:23:30.387Z,96983.31
2022-09-28T23:25:57.041Z,96979.84
2022-09-28T23:28:24.785Z,96977.69
2022-09-28T23:30:51.977Z,96977.03
2022-09-28T23:33:20.169Z,96980.34
2022-09-28T23:35:47.123Z,96977.84
2022-09-28T23:38:16.489Z,96975.19
2022-09-28T23:40:42.994Z,96971.59
2022-09-28T23:43:09.403Z,96978.19
2022-09-28T23:45:36.033Z,96966.28
2022-09-28T23:48:02.586Z,96972.06
2022-09-28T23:50:29.443Z,96973.09
2022-09-28T23:52:55.847Z,96981.16
2022-09-28T23:55:22.233Z,96982.16
2022-09-28T23:57:48.622Z,96980.34
